Terminal Aerodrome Forecast
Issued by NWS Paducah, KY

Home | Current Version | Previous Version | Text Only | Print | Product List | Glossary On
Versions: 1 2 3 4 5 6 7 8 9 10 11 12 13 14 15
000
FTUS43 KPAH 181500 AAA
TAFEVV
TAF AMD
KEVV 181551Z 1816/1912 33008G17KT P6SM BKN035
      TEMPO 1816/1819 BKN025
     FM190000 36003KT P6SM SCT035
     FM190300 VRB02KT P6SM SKC
     FM190800 00000KT 4SM BR SKC=

USA.gov is the U.S. government's official web portal to all federal, state and local government web resources and services.